Time;durP1;ratioP1;P1;durP2;ratioP2;P2;SDS_P1;SDS_P2;PMS_P1;PMS_P2;Temp;Humidity;BMP_temperature;BMP_pressure;BME280_temperature;BME280_humidity;BME280_pressure;Samples;Min_cycle;Max_cycle;Signal;HPM_P1;HPM_P2
2022/01/21 00:00:18;;;;;;;10.05;2.45;;;7.80;96.40;;;;;;5059283;28;20033;-48
2022/01/21 00:02:44;;;;;;;2.85;1.35;;;7.80;96.30;;;;;;5051492;28;20115;-48
2022/01/21 00:05:10;;;;;;;4.97;1.52;;;7.80;96.40;;;;;;5053266;28;20040;-48
2022/01/21 00:07:36;;;;;;;7.90;1.85;;;7.80;96.30;;;;;;5058792;28;20557;-48
2022/01/21 00:10:04;;;;;;;13.85;1.73;;;7.70;96.40;;;;;;5059902;28;20064;-48
2022/01/21 00:12:31;;;;;;;19.80;2.13;;;7.80;96.40;;;;;;5052563;28;20521;-48
2022/01/21 00:14:56;;;;;;;3.20;1.52;;;7.80;96.40;;;;;;5057660;28;20029;-47
2022/01/21 00:17:23;;;;;;;6.97;1.45;;;7.70;96.40;;;;;;5059977;28;20024;-48
2022/01/21 00:19:58;;;;;;;10.40;2.25;;;7.70;96.40;;;;;;5054192;28;20740;-48
2022/01/21 00:30:36;;;;;;;4.82;1.70;;;7.80;96.40;;;;;;5059410;28;20411;-48
2022/01/21 00:33:02;;;;;;;5.15;1.65;;;7.80;96.30;;;;;;5057344;28;20024;-48
2022/01/21 00:35:27;;;;;;;8.40;1.90;;;7.80;96.30;;;;;;5055492;28;20052;-48
2022/01/21 00:37:53;;;;;;;9.75;2.15;;;7.70;96.30;;;;;;5059145;28;20111;-48
2022/01/21 00:40:22;;;;;;;8.95;1.30;;;7.80;96.30;;;;;;5057537;28;20032;-48
2022/01/21 00:43:06;;;;;;;4.35;1.88;;;7.80;96.30;;;;;;5056201;28;20360;-48
2022/01/21 00:45:32;;;;;;;6.60;1.65;;;7.80;96.30;;;;;;5056874;28;20115;-48
2022/01/21 00:47:58;;;;;;;3.78;1.70;;;7.80;96.30;;;;;;5059455;28;20108;-48
2022/01/21 00:50:24;;;;;;;5.10;1.88;;;7.80;96.40;;;;;;5055133;28;20381;-48
2022/01/21 00:52:49;;;;;;;5.85;2.05;;;7.80;96.30;;;;;;5057393;28;20045;-48
2022/01/21 00:55:15;;;;;;;6.70;1.77;;;7.80;96.30;;;;;;5060933;28;20033;-48
2022/01/21 00:57:41;;;;;;;3.25;2.13;;;7.80;96.40;;;;;;5061250;28;20047;-48
2022/01/21 01:00:09;;;;;;;4.45;1.55;;;7.80;96.40;;;;;;5057431;28;20021;-48
2022/01/21 01:02:35;;;;;;;2.88;1.52;;;7.80;96.40;;;;;;5057508;28;20032;-48
2022/01/21 01:05:00;;;;;;;6.03;1.80;;;7.70;96.40;;;;;;5053278;28;20048;-48
2022/01/21 01:07:26;;;;;;;4.32;1.65;;;7.70;96.40;;;;;;5057550;28;20021;-48
2022/01/21 01:09:54;;;;;;;2.25;1.30;;;7.70;96.40;;;;;;5060582;28;20040;-48
2022/01/21 01:12:46;;;;;;;1.15;1.08;;;7.70;96.40;;;;;;5059616;28;20029;-48
2022/01/21 01:20:35;;;;;;;1.95;1.02;;;7.80;96.40;;;;;;5056049;28;20090;-48
2022/01/21 01:23:09;;;;;;;1.48;1.00;;;7.80;96.40;;;;;;5060676;28;20028;-48
2022/01/21 01:28:27;;;;;;;5.30;1.70;;;7.70;96.40;;;;;;5060388;28;20443;-48
2022/01/21 01:30:52;;;;;;;4.32;1.00;;;7.80;96.40;;;;;;5061595;28;20307;-47
2022/01/21 01:33:23;;;;;;;2.05;1.10;;;7.70;96.40;;;;;;5060875;28;20025;-47
2022/01/21 01:35:50;;;;;;;2.38;1.65;;;7.70;96.40;;;;;;5061408;28;20030;-48
2022/01/21 01:38:40;;;;;;;4.90;1.25;;;7.70;96.40;;;;;;5061208;28;20450;-47
2022/01/21 01:41:10;;;;;;;0.73;0.73;;;7.80;96.40;;;;;;5058797;28;20033;-48
2022/01/21 01:51:49;;;;;;;2.40;1.45;;;7.70;96.40;;;;;;5059351;28;20040;-48
2022/01/21 01:54:16;;;;;;;2.53;1.13;;;7.70;96.40;;;;;;5061281;28;20485;-48
2022/01/21 01:56:50;;;;;;;9.68;1.45;;;7.70;96.40;;;;;;5060375;28;20165;-48
2022/01/21 01:59:15;;;;;;;3.17;1.52;;;7.80;96.40;;;;;;5060578;28;20021;-48
2022/01/21 02:01:41;;;;;;;3.22;1.25;;;7.70;96.30;;;;;;5053968;28;20029;-48
2022/01/21 02:04:07;;;;;;;4.05;1.52;;;7.70;96.30;;;;;;5055762;28;20126;-48
2022/01/21 02:06:33;;;;;;;2.33;1.00;;;7.80;96.40;;;;;;5059854;28;20050;-48
2022/01/21 02:09:00;;;;;;;1.38;0.93;;;7.70;96.40;;;;;;5056160;28;20036;-48
2022/01/21 02:11:26;;;;;;;3.08;1.38;;;7.70;96.30;;;;;;5059784;28;20035;-48
2022/01/21 02:13:58;;;;;;;1.88;0.90;;;7.70;96.30;;;;;;5060826;28;20053;-48
2022/01/21 02:21:39;;;;;;;2.13;1.15;;;7.70;96.30;;;;;;5055020;28;20373;-48
2022/01/21 02:24:07;;;;;;;1.67;1.15;;;7.70;96.30;;;;;;5055988;28;20528;-48
2022/01/21 02:26:34;;;;;;;8.10;1.45;;;7.70;96.30;;;;;;5059268;28;20028;-48
2022/01/21 02:29:01;;;;;;;3.63;1.10;;;7.70;96.30;;;;;;5063341;28;20044;-48
2022/01/21 02:31:28;;;;;;;11.32;1.50;;;7.70;96.30;;;;;;5055202;28;20067;-48
2022/01/21 02:33:54;;;;;;;3.20;1.63;;;7.70;96.30;;;;;;5057175;28;20032;-48
2022/01/21 02:36:19;;;;;;;10.63;2.13;;;7.70;96.30;;;;;;5057092;28;20366;-48
2022/01/21 02:38:45;;;;;;;4.70;1.58;;;7.70;96.30;;;;;;5057213;28;20039;-48
2022/01/21 02:41:11;;;;;;;4.35;1.60;;;7.70;96.30;;;;;;5060655;28;20047;-47
2022/01/21 02:43:36;;;;;;;2.25;1.40;;;7.70;96.30;;;;;;5059511;28;20028;-48
2022/01/21 02:46:06;;;;;;;8.55;1.90;;;7.70;96.30;;;;;;5060526;28;20075;-48
2022/01/21 02:48:36;;;;;;;9.13;1.35;;;7.70;96.30;;;;;;5056643;28;20435;-48
2022/01/21 02:51:02;;;;;;;7.20;1.77;;;7.70;96.30;;;;;;5051076;28;20114;-48
2022/01/21 02:54:03;;;;;;;1.98;1.25;;;7.70;96.30;;;;;;5055312;28;20118;-48
2022/01/21 02:56:23;;;;;;;5.75;1.75;;;7.70;96.30;;;;;;5056538;28;20037;-48
2022/01/21 02:58:49;;;;;;;1.80;1.45;;;7.70;96.30;;;;;;5060664;28;20105;-48
2022/01/21 03:01:16;;;;;;;1.50;1.33;;;7.70;96.30;;;;;;5060674;28;20025;-48
2022/01/21 03:03:43;;;;;;;6.30;1.40;;;7.70;96.20;;;;;;5055874;28;20112;-48
2022/01/21 03:06:10;;;;;;;2.78;1.50;;;7.70;96.30;;;;;;5051797;28;20092;-48
2022/01/21 03:08:35;;;;;;;3.35;1.77;;;7.70;96.30;;;;;;5058669;28;20044;-48
2022/01/21 03:11:01;;;;;;;4.20;1.83;;;7.70;96.30;;;;;;5059806;28;20036;-48
2022/01/21 03:13:26;;;;;;;5.10;1.85;;;7.70;96.30;;;;;;5050472;28;20029;-48
2022/01/21 03:15:53;;;;;;;5.43;1.85;;;7.70;96.30;;;;;;5062487;28;20045;-48
2022/01/21 03:18:19;;;;;;;2.20;1.50;;;7.70;96.30;;;;;;5057976;28;20082;-48
2022/01/21 03:20:45;;;;;;;5.40;1.70;;;7.70;96.30;;;;;;5055091;28;20032;-48
2022/01/21 03:23:16;;;;;;;7.13;1.85;;;7.70;96.30;;;;;;5058150;28;20383;-47
2022/01/21 03:25:44;;;;;;;5.53;1.13;;;7.70;96.30;;;;;;5057467;28;20139;-48
2022/01/21 03:28:11;;;;;;;7.07;1.60;;;7.70;96.30;;;;;;5060366;28;20086;-48
2022/01/21 03:30:37;;;;;;;4.90;1.50;;;7.70;96.30;;;;;;5057516;28;20033;-48
2022/01/21 03:33:04;;;;;;;4.45;1.42;;;7.70;96.30;;;;;;5057516;28;20445;-48
2022/01/21 03:35:30;;;;;;;7.18;2.17;;;7.70;96.30;;;;;;5054581;28;20029;-48
2022/01/21 03:37:56;;;;;;;5.90;1.73;;;7.70;96.30;;;;;;5058097;28;20050;-48
2022/01/21 03:40:21;;;;;;;7.32;1.45;;;7.70;96.30;;;;;;5059750;28;20032;-48
2022/01/21 03:42:47;;;;;;;6.03;2.00;;;7.60;96.20;;;;;;5060702;28;20434;-48
2022/01/21 03:45:14;;;;;;;8.85;1.83;;;7.70;96.30;;;;;;5061001;28;20479;-48
2022/01/21 03:47:40;;;;;;;10.35;2.88;;;7.70;96.30;;;;;;5058724;28;20028;-48
2022/01/21 03:50:22;;;;;;;4.85;1.95;;;7.70;96.30;;;;;;5053986;28;20167;-48
2022/01/21 03:52:48;;;;;;;2.50;1.30;;;7.60;96.20;;;;;;5054562;28;20568;-48
2022/01/21 03:55:14;;;;;;;9.52;1.98;;;7.70;96.30;;;;;;5054637;28;20040;-48
2022/01/21 03:57:40;;;;;;;5.30;1.73;;;7.70;96.30;;;;;;5057157;28;20032;-47
2022/01/21 04:00:07;;;;;;;4.43;1.35;;;7.70;96.30;;;;;;5055481;28;20438;-48
2022/01/21 04:02:33;;;;;;;3.95;1.38;;;7.70;96.30;;;;;;5056658;28;20107;-48
2022/01/21 04:04:59;;;;;;;3.58;1.38;;;7.70;96.30;;;;;;5057296;28;20415;-48
2022/01/21 04:07:24;;;;;;;7.07;2.08;;;7.70;96.30;;;;;;5055355;28;20036;-47
2022/01/21 04:09:50;;;;;;;3.25;1.35;;;7.60;96.30;;;;;;5059593;28;20147;-48
2022/01/21 04:12:15;;;;;;;4.07;1.48;;;7.70;96.30;;;;;;5059600;28;20339;-48
2022/01/21 04:14:42;;;;;;;3.50;1.20;;;7.70;96.30;;;;;;5058639;28;20119;-48
2022/01/21 04:17:07;;;;;;;8.32;1.45;;;7.70;96.30;;;;;;5060977;28;20028;-48
2022/01/21 04:19:33;;;;;;;2.55;1.50;;;7.70;96.20;;;;;;5061432;28;20029;-48
2022/01/21 04:21:59;;;;;;;3.38;1.48;;;7.70;96.20;;;;;;5054014;28;20031;-48
2022/01/21 04:24:25;;;;;;;3.50;1.63;;;7.60;96.20;;;;;;5057257;28;20035;-48
2022/01/21 04:26:50;;;;;;;10.52;1.40;;;7.70;96.30;;;;;;5054128;28;20036;-48
2022/01/21 04:29:16;;;;;;;2.65;1.20;;;7.70;96.30;;;;;;5059369;28;20067;-48
2022/01/21 04:31:42;;;;;;;5.55;1.45;;;7.70;96.30;;;;;;5059133;28;20029;-48
2022/01/21 04:34:07;;;;;;;14.88;1.80;;;7.70;96.30;;;;;;5065292;28;20024;-48
2022/01/21 04:36:34;;;;;;;2.45;1.50;;;7.60;96.30;;;;;;5058649;28;20021;-47
2022/01/21 04:39:02;;;;;;;5.45;2.13;;;7.70;96.30;;;;;;5062165;28;20060;-48
2022/01/21 04:49:28;;;;;;;6.80;2.40;;;7.70;96.30;;;;;;5064151;28;20131;-48
2022/01/21 04:52:02;;;;;;;4.18;1.80;;;7.60;96.20;;;;;;5056741;28;20103;-48
2022/01/21 04:54:32;;;;;;;5.55;1.77;;;7.60;96.20;;;;;;5058854;28;20024;-48
2022/01/21 04:56:59;;;;;;;3.85;1.60;;;7.70;96.20;;;;;;5057051;28;20493;-48
2022/01/21 04:59:24;;;;;;;5.10;1.60;;;7.60;96.20;;;;;;5056403;28;20036;-48
2022/01/21 05:01:51;;;;;;;4.72;1.58;;;7.60;96.20;;;;;;5057886;28;20037;-48
2022/01/21 05:04:18;;;;;;;3.53;1.55;;;7.70;96.20;;;;;;5060700;28;20049;-47
2022/01/21 05:06:44;;;;;;;4.93;1.25;;;7.70;96.20;;;;;;5053668;28;20039;-48
2022/01/21 05:09:10;;;;;;;2.70;1.45;;;7.60;96.20;;;;;;5059770;28;20139;-48
2022/01/21 05:11:37;;;;;;;7.28;1.98;;;7.70;96.20;;;;;;5054976;28;20478;-48
2022/01/21 05:14:18;;;;;;;4.68;1.83;;;7.60;96.20;;;;;;5060705;28;20522;-48
2022/01/21 05:16:49;;;;;;;2.30;1.35;;;7.60;96.20;;;;;;5060705;28;20035;-48
2022/01/21 05:19:17;;;;;;;5.95;2.15;;;7.60;96.10;;;;;;5060946;28;20031;-48
2022/01/21 05:21:48;;;;;;;4.22;1.48;;;7.60;96.20;;;;;;5055816;28;20031;-48
2022/01/21 05:24:16;;;;;;;6.03;2.10;;;7.60;96.10;;;;;;5058796;28;20480;-49
2022/01/21 05:26:52;;;;;;;6.70;2.33;;;7.60;96.20;;;;;;5056947;28;20036;-48
2022/01/21 05:29:19;;;;;;;5.55;2.53;;;7.60;96.10;;;;;;5056098;28;20039;-48
2022/01/21 05:31:46;;;;;;;4.13;1.80;;;7.60;96.20;;;;;;5060891;28;20025;-48
2022/01/21 05:34:12;;;;;;;3.25;1.30;;;7.60;96.10;;;;;;5060092;28;20354;-48
2022/01/21 05:36:40;;;;;;;6.38;1.60;;;7.60;96.10;;;;;;5059215;28;20055;-48
2022/01/21 05:39:07;;;;;;;4.03;1.60;;;7.60;96.10;;;;;;5057368;28;20045;-48
2022/01/21 05:41:33;;;;;;;5.03;1.60;;;7.60;96.10;;;;;;5060414;28;20025;-48
2022/01/21 05:44:03;;;;;;;8.77;2.33;;;7.60;96.10;;;;;;5060479;28;20021;-48
2022/01/21 05:46:54;;;;;;;2.17;1.95;;;7.60;96.10;;;;;;5061050;28;20025;-47
2022/01/21 05:49:24;;;;;;;10.32;2.33;;;7.60;96.10;;;;;;5063696;28;20072;-48
2022/01/21 05:51:51;;;;;;;10.40;2.13;;;7.60;96.10;;;;;;5055177;28;20029;-48
2022/01/21 05:54:23;;;;;;;6.63;1.92;;;7.60;96.10;;;;;;5069357;28;20033;-48
2022/01/21 05:56:48;;;;;;;7.35;1.30;;;7.60;96.10;;;;;;5064647;28;20055;-48
2022/01/21 05:59:14;;;;;;;7.20;1.67;;;7.60;96.10;;;;;;5060440;28;20052;-48
2022/01/21 06:01:40;;;;;;;2.55;1.63;;;7.60;96.00;;;;;;5059198;28;20025;-47
2022/01/21 06:04:06;;;;;;;4.63;2.28;;;7.60;96.00;;;;;;5055433;28;20132;-48
2022/01/21 06:06:33;;;;;;;5.38;1.60;;;7.60;96.00;;;;;;5058173;28;20087;-48
2022/01/21 06:08:58;;;;;;;5.68;2.75;;;7.60;96.00;;;;;;5056551;28;20037;-48
2022/01/21 06:11:24;;;;;;;6.18;2.55;;;7.60;96.00;;;;;;5057316;28;20039;-48
2022/01/21 06:13:51;;;;;;;6.47;1.98;;;7.60;96.00;;;;;;5060717;28;20037;-48
2022/01/21 06:16:18;;;;;;;10.05;1.65;;;7.60;96.00;;;;;;5061031;28;20025;-48
2022/01/21 06:18:44;;;;;;;1.92;1.00;;;7.60;96.00;;;;;;5059465;28;20060;-47
2022/01/21 06:21:09;;;;;;;6.68;2.03;;;7.60;96.00;;;;;;5057949;28;20029;-48
2022/01/21 06:23:35;;;;;;;5.00;1.95;;;7.60;96.00;;;;;;5054482;28;20025;-48
2022/01/21 06:26:01;;;;;;;5.18;2.22;;;7.60;96.00;;;;;;5061339;28;20027;-48
2022/01/21 06:28:26;;;;;;;4.10;2.53;;;7.60;96.00;;;;;;5068106;28;20264;-48
2022/01/21 06:30:52;;;;;;;5.75;1.58;;;7.60;96.00;;;;;;5061076;28;20025;-48
2022/01/21 06:33:20;;;;;;;8.38;1.85;;;7.50;95.80;;;;;;5058856;28;20094;-48
2022/01/21 06:35:49;;;;;;;3.05;1.40;;;7.60;95.80;;;;;;5061087;28;20335;-48
2022/01/21 06:38:17;;;;;;;6.25;1.73;;;7.60;95.60;;;;;;5052698;28;20036;-48
2022/01/21 06:40:43;;;;;;;9.52;2.15;;;7.60;95.40;;;;;;5061094;28;20025;-48
2022/01/21 06:43:08;;;;;;;4.40;1.52;;;7.60;95.40;;;;;;5060502;28;20061;-48
2022/01/21 06:45:35;;;;;;;7.85;2.05;;;7.50;95.40;;;;;;5062572;28;20040;-47
2022/01/21 06:48:02;;;;;;;11.50;1.77;;;7.50;95.40;;;;;;5060600;28;20396;-48
2022/01/21 06:50:29;;;;;;;8.00;2.60;;;7.50;95.40;;;;;;5060627;28;20056;-48
2022/01/21 06:52:55;;;;;;;5.03;1.80;;;7.50;95.40;;;;;;5053196;28;20029;-48
2022/01/21 06:55:21;;;;;;;4.07;1.98;;;7.60;95.40;;;;;;5062117;28;20492;-48
2022/01/21 06:57:46;;;;;;;3.58;1.80;;;7.60;95.40;;;;;;5062453;28;20115;-48
2022/01/21 07:00:18;;;;;;;9.27;2.97;;;7.60;95.40;;;;;;5056089;28;20037;-49
2022/01/21 07:02:44;;;;;;;11.40;2.13;;;7.50;95.40;;;;;;5056192;28;20029;-48
2022/01/21 07:05:09;;;;;;;9.00;2.00;;;7.60;95.40;;;;;;5063002;28;20338;-47
2022/01/21 07:07:35;;;;;;;6.53;1.88;;;7.60;95.40;;;;;;5056121;28;20029;-48
2022/01/21 07:10:05;;;;;;;7.47;2.08;;;7.50;95.40;;;;;;5062187;28;20033;-47
2022/01/21 07:12:31;;;;;;;12.52;1.80;;;7.50;95.40;;;;;;5059718;28;20344;-47
2022/01/21 07:14:56;;;;;;;6.88;1.55;;;7.60;95.40;;;;;;5060206;28;20041;-48
2022/01/21 07:17:22;;;;;;;5.85;1.75;;;7.50;95.40;;;;;;5062163;28;20048;-47
2022/01/21 07:19:48;;;;;;;4.72;1.70;;;7.50;95.40;;;;;;5061045;28;20454;-48
2022/01/21 07:22:13;;;;;;;9.38;2.60;;;7.50;95.40;;;;;;5058250;28;20439;-48
2022/01/21 07:24:39;;;;;;;4.28;2.15;;;7.50;95.40;;;;;;5058781;28;20012;-47
2022/01/21 07:27:05;;;;;;;4.72;1.85;;;7.50;95.40;;;;;;5060528;28;20021;-47
2022/01/21 07:29:31;;;;;;;6.57;2.30;;;7.50;95.60;;;;;;5059251;28;20052;-47
2022/01/21 07:31:56;;;;;;;5.35;2.40;;;7.50;95.50;;;;;;5058794;28;20083;-48
2022/01/21 07:34:24;;;;;;;7.13;2.28;;;7.50;95.50;;;;;;5060611;28;20029;-48
2022/01/21 07:36:50;;;;;;;8.68;2.70;;;7.50;95.50;;;;;;5062517;28;20021;-48
2022/01/21 07:39:16;;;;;;;5.97;1.98;;;7.50;95.50;;;;;;5056332;28;20370;-48
2022/01/21 07:41:42;;;;;;;7.45;2.10;;;7.50;95.50;;;;;;5059035;28;20438;-48
2022/01/21 07:44:07;;;;;;;5.18;2.35;;;7.50;95.50;;;;;;5061307;28;20028;-47
2022/01/21 07:46:33;;;;;;;15.05;2.38;;;7.50;95.50;;;;;;5060379;28;20036;-48
2022/01/21 07:48:59;;;;;;;5.25;2.60;;;7.50;95.50;;;;;;5059893;28;20043;-48
2022/01/21 07:51:26;;;;;;;8.02;3.15;;;7.50;95.50;;;;;;5061353;28;20334;-47
2022/01/21 07:53:52;;;;;;;9.25;2.47;;;7.50;95.60;;;;;;5056190;28;20082;-47
2022/01/21 07:56:18;;;;;;;6.18;2.45;;;7.50;95.50;;;;;;5062313;28;20032;-48
2022/01/21 07:58:43;;;;;;;10.98;2.20;;;7.50;95.50;;;;;;5059333;28;20477;-47
2022/01/21 08:01:09;;;;;;;2.42;1.70;;;7.50;95.60;;;;;;5063467;28;20040;-48
2022/01/21 08:03:35;;;;;;;7.80;2.17;;;7.50;95.60;;;;;;5061959;28;20059;-48
2022/01/21 08:06:00;;;;;;;8.52;2.00;;;7.50;95.60;;;;;;5065297;28;20441;-47
2022/01/21 08:08:26;;;;;;;5.45;1.60;;;7.50;95.50;;;;;;5058400;28;20135;-47
2022/01/21 08:10:53;;;;;;;2.38;1.63;;;7.50;95.60;;;;;;5065638;28;20408;-47
2022/01/21 08:13:19;;;;;;;3.30;1.80;;;7.50;95.60;;;;;;5063216;28;20025;-48
2022/01/21 08:15:45;;;;;;;8.00;2.25;;;7.50;95.60;;;;;;5063218;28;20036;-47
2022/01/21 08:18:10;;;;;;;7.05;1.95;;;7.50;95.60;;;;;;5063134;28;20029;-48
2022/01/21 08:20:36;;;;;;;9.07;2.13;;;7.50;95.60;;;;;;5064446;28;20365;-48
2022/01/21 08:23:02;;;;;;;8.45;2.42;;;7.50;95.50;;;;;;5060686;28;20108;-47
2022/01/21 08:25:28;;;;;;;9.68;1.50;;;7.50;95.60;;;;;;5063302;28;20036;-47
2022/01/21 08:27:53;;;;;;;8.32;2.10;;;7.50;95.60;;;;;;5063583;28;20025;-48
2022/01/21 08:30:19;;;;;;;9.13;1.75;;;7.50;95.60;;;;;;5065452;28;20082;-47
2022/01/21 08:32:45;;;;;;;5.60;1.77;;;7.50;95.70;;;;;;5062807;28;20024;-48
2022/01/21 08:35:11;;;;;;;5.57;2.28;;;7.50;95.70;;;;;;5063470;28;20091;-47
2022/01/21 08:37:36;;;;;;;15.02;2.45;;;7.50;95.70;;;;;;5063755;28;20048;-47
2022/01/21 08:40:04;;;;;;;9.55;1.90;;;7.50;95.70;;;;;;5061648;28;20335;-47
2022/01/21 08:42:30;;;;;;;6.47;1.63;;;7.50;95.70;;;;;;5064260;28;20027;-48
2022/01/21 08:44:55;;;;;;;2.75;1.65;;;7.50;95.70;;;;;;5063091;28;20111;-47
2022/01/21 08:47:22;;;;;;;9.23;2.00;;;7.60;95.70;;;;;;5063686;28;21052;-48
2022/01/21 08:49:49;;;;;;;6.53;2.47;;;7.50;95.70;;;;;;5065202;28;20481;-48
2022/01/21 08:52:19;;;;;;;6.90;1.73;;;7.50;95.70;;;;;;5062241;28;20362;-48
2022/01/21 08:54:46;;;;;;;2.00;1.50;;;7.50;95.70;;;;;;5057910;28;20477;-48
2022/01/21 08:57:12;;;;;;;7.43;1.75;;;7.50;95.80;;;;;;5064219;28;20028;-48
2022/01/21 08:59:38;;;;;;;4.15;1.83;;;7.50;95.80;;;;;;5064466;28;20116;-47
2022/01/21 09:02:03;;;;;;;6.35;2.25;;;7.60;95.80;;;;;;5061043;28;20017;-48
2022/01/21 09:04:29;;;;;;;3.88;1.48;;;7.60;95.70;;;;;;5061021;28;20473;-47
2022/01/21 09:06:55;;;;;;;7.40;1.92;;;7.60;95.80;;;;;;5064737;28;20120;-48
2022/01/21 09:09:21;;;;;;;7.30;2.50;;;7.60;95.90;;;;;;5058624;28;20457;-48
2022/01/21 09:11:46;;;;;;;9.25;2.00;;;7.60;95.90;;;;;;5062078;28;20489;-48
2022/01/21 09:14:12;;;;;;;10.77;1.95;;;7.60;95.90;;;;;;5062098;28;20048;-47
2022/01/21 09:16:38;;;;;;;11.35;1.75;;;7.60;95.90;;;;;;5064962;28;20116;-48
2022/01/21 09:19:05;;;;;;;5.20;1.40;;;7.60;95.90;;;;;;5063447;28;20120;-48
2022/01/21 09:21:35;;;;;;;4.72;1.52;;;7.60;95.90;;;;;;5061609;28;20033;-48
2022/01/21 09:24:01;;;;;;;5.60;1.40;;;7.60;96.00;;;;;;5058588;28;20036;-48
2022/01/21 09:26:27;;;;;;;15.50;1.77;;;7.70;96.00;;;;;;5064191;28;20036;-48
2022/01/21 09:28:53;;;;;;;7.95;1.67;;;7.70;96.00;;;;;;5061886;28;20021;-48
2022/01/21 09:31:20;;;;;;;3.17;1.35;;;7.70;96.00;;;;;;5062795;28;20457;-47
2022/01/21 09:33:46;;;;;;;6.50;1.60;;;7.70;96.10;;;;;;5064050;28;20025;-47
2022/01/21 09:36:12;;;;;;;2.08;1.73;;;7.70;96.20;;;;;;5062469;28;20544;-48
2022/01/21 09:38:39;;;;;;;10.43;2.35;;;7.80;96.30;;;;;;5058708;28;20021;-48
2022/01/21 09:41:06;;;;;;;12.52;1.92;;;7.80;96.30;;;;;;5061551;28;20077;-47
2022/01/21 09:43:34;;;;;;;6.35;1.70;;;7.80;96.40;;;;;;5062490;28;20342;-48
2022/01/21 09:46:05;;;;;;;4.75;1.85;;;7.80;96.60;;;;;;5064002;28;20365;-48
2022/01/21 09:48:36;;;;;;;8.35;2.08;;;7.80;96.60;;;;;;5062961;28;20118;-48
2022/01/21 09:51:02;;;;;;;13.30;2.30;;;7.80;96.60;;;;;;5061907;28;20037;-48
2022/01/21 09:53:31;;;;;;;3.58;1.55;;;7.80;96.50;;;;;;5060008;28;20109;-48
2022/01/21 09:55:58;;;;;;;7.25;1.83;;;7.80;96.50;;;;;;5060406;28;20417;-48
2022/01/21 09:58:26;;;;;;;8.32;2.03;;;7.80;96.50;;;;;;5063513;28;20456;-47
2022/01/21 10:00:53;;;;;;;6.93;1.92;;;7.80;96.60;;;;;;5063635;28;20020;-48
2022/01/21 10:03:19;;;;;;;4.15;1.92;;;7.80;96.50;;;;;;5059709;28;20020;-48
2022/01/21 10:05:48;;;;;;;2.58;1.58;;;7.80;96.80;;;;;;5061588;28;20124;-48
2022/01/21 10:08:15;;;;;;;2.83;1.45;;;7.90;96.50;;;;;;5060240;28;20017;-48
2022/01/21 10:10:42;;;;;;;5.80;2.45;;;7.80;96.50;;;;;;5061337;28;20041;-48
2022/01/21 10:13:09;;;;;;;2.70;1.35;;;7.90;96.70;;;;;;5060221;28;20476;-48
2022/01/21 10:15:37;;;;;;;6.05;1.95;;;7.90;96.50;;;;;;5061045;28;20033;-48
2022/01/21 10:18:18;;;;;;;2.03;1.38;;;7.90;96.50;;;;;;5062045;28;20100;-48
2022/01/21 10:20:56;;;;;;;7.03;2.38;;;8.00;96.80;;;;;;5062486;28;20078;-48
2022/01/21 10:23:22;;;;;;;7.13;1.75;;;8.00;97.10;;;;;;5058967;28;20025;-48
2022/01/21 10:25:57;;;;;;;4.43;2.10;;;8.10;97.10;;;;;;5059212;28;20051;-47
2022/01/21 10:28:24;;;;;;;3.80;1.92;;;8.00;96.90;;;;;;5061997;28;20028;-48
2022/01/21 10:31:30;;;;;;;6.50;2.00;;;8.00;97.00;;;;;;5060329;28;20059;-48
2022/01/21 10:34:01;;;;;;;9.40;2.33;;;8.00;97.00;;;;;;5062930;28;20033;-48
2022/01/21 10:36:31;;;;;;;10.13;2.70;;;8.00;97.00;;;;;;5060842;28;20389;-48
2022/01/21 10:39:17;;;;;;;10.40;2.50;;;8.00;97.10;;;;;;5059282;28;20033;-48
2022/01/21 10:41:46;;;;;;;8.02;2.08;;;8.00;97.10;;;;;;5062055;28;20032;-48
2022/01/21 10:44:15;;;;;;;6.70;2.60;;;8.00;97.20;;;;;;5060955;28;20450;-48
2022/01/21 10:46:47;;;;;;;8.73;2.20;;;8.00;97.10;;;;;;5060745;28;20128;-48
2022/01/21 10:49:14;;;;;;;11.20;3.28;;;8.00;97.10;;;;;;5061182;28;20041;-48
2022/01/21 10:51:48;;;;;;;5.28;1.60;;;8.00;97.10;;;;;;5058826;28;20070;-48
2022/01/21 10:54:19;;;;;;;16.20;3.83;;;8.00;97.50;;;;;;5058844;28;20029;-47
2022/01/21 10:57:19;;;;;;;13.48;2.20;;;8.00;97.10;;;;;;5059692;28;20521;-48
2022/01/21 10:59:59;;;;;;;9.30;1.38;;;8.00;97.10;;;;;;5061946;28;20028;-47
2022/01/21 11:02:34;;;;;;;7.80;1.67;;;8.00;97.10;;;;;;5058372;28;20025;-48
2022/01/21 11:05:28;;;;;;;3.08;1.73;;;8.00;97.00;;;;;;5059947;28;20044;-48
2022/01/21 11:08:00;;;;;;;8.65;3.28;;;8.00;97.00;;;;;;5061572;28;20032;-48
2022/01/21 11:10:35;;;;;;;7.68;1.95;;;8.10;97.00;;;;;;5055688;28;20089;-48
2022/01/21 11:13:12;;;;;;;5.93;2.38;;;8.10;97.00;;;;;;5061441;28;20471;-48
2022/01/21 11:15:46;;;;;;;6.65;1.75;;;8.00;96.90;;;;;;5061780;28;20032;-48
2022/01/21 11:18:15;;;;;;;5.25;2.13;;;8.20;96.90;;;;;;5060790;28;20114;-48
2022/01/21 11:20:43;;;;;;;5.00;1.63;;;8.20;97.00;;;;;;5059714;28;20465;-48
2022/01/21 11:23:10;;;;;;;3.67;1.40;;;8.30;97.20;;;;;;5058774;28;20541;-48
2022/01/21 11:25:54;;;;;;;3.88;1.73;;;8.30;97.20;;;;;;5055789;28;20029;-48
2022/01/21 11:28:27;;;;;;;10.07;2.47;;;8.30;97.10;;;;;;5061834;28;20029;-48
2022/01/21 11:30:54;;;;;;;13.45;1.98;;;8.30;97.10;;;;;;5060521;28;20361;-48
2022/01/21 11:33:22;;;;;;;3.92;1.80;;;8.30;97.20;;;;;;5059341;28;20048;-48
2022/01/21 11:35:48;;;;;;;5.80;1.60;;;8.20;97.20;;;;;;5062014;28;20052;-48
2022/01/21 11:38:17;;;;;;;6.75;1.25;;;8.30;97.40;;;;;;5061020;28;20033;-48
2022/01/21 11:40:43;;;;;;;2.67;1.50;;;8.30;97.40;;;;;;5055259;28;20477;-48
2022/01/21 11:43:10;;;;;;;9.10;1.98;;;8.30;97.50;;;;;;5059855;28;20033;-48
2022/01/21 11:50:45;;;;;;;5.15;1.63;;;8.40;97.70;;;;;;5059247;28;20370;-48
2022/01/21 11:53:12;;;;;;;3.38;1.27;;;8.40;97.50;;;;;;5060010;28;20499;-48
2022/01/21 11:55:45;;;;;;;3.15;1.45;;;8.40;97.10;;;;;;5057534;28;20036;-48
2022/01/21 11:58:12;;;;;;;4.00;1.30;;;8.40;97.20;;;;;;5060891;28;20021;-48
2022/01/21 12:00:39;;;;;;;8.57;1.90;;;8.40;97.40;;;;;;5059035;28;20517;-47
2022/01/21 12:03:06;;;;;;;4.82;1.30;;;8.40;97.20;;;;;;5058408;28;20025;-48
2022/01/21 12:05:33;;;;;;;4.07;1.40;;;8.40;97.20;;;;;;5059383;28;20051;-48
2022/01/21 12:08:03;;;;;;;5.50;1.73;;;8.40;97.20;;;;;;5059466;28;20462;-48
2022/01/21 12:10:38;;;;;;;;;;;8.40;97.20;;;;;;5054475;28;20063;-48
2022/01/21 12:13:20;;;;;;;7.85;1.50;;;8.40;97.30;;;;;;5058963;28;19946;-48
2022/01/21 12:16:05;;;;;;;10.80;1.27;;;8.40;97.60;;;;;;5059589;28;20021;-48
2022/01/21 12:21:01;;;;;;;4.50;1.33;;;8.30;98.10;;;;;;5059305;28;20461;-48
2022/01/21 12:23:28;;;;;;;8.88;2.42;;;8.30;98.30;;;;;;5058966;28;20040;-48
2022/01/21 12:26:09;;;;;;;10.18;2.33;;;8.30;98.50;;;;;;5055966;28;20154;-48
2022/01/21 12:28:38;;;;;;;5.45;2.13;;;8.30;98.60;;;;;;5060992;28;20020;-48
2022/01/21 12:31:05;;;;;;;4.47;1.50;;;8.20;98.50;;;;;;5059136;28;20082;-48
2022/01/21 12:33:54;;;;;;;7.50;1.50;;;8.30;98.50;;;;;;5059634;28;20252;-48
2022/01/21 12:36:23;;;;;;;5.03;1.75;;;8.40;98.40;;;;;;5060788;28;20107;-48
2022/01/21 12:41:17;;;;;;;6.10;1.60;;;8.40;97.80;;;;;;5055494;28;20041;-48
2022/01/21 12:43:53;;;;;;;8.35;1.50;;;8.40;97.80;;;;;;5061189;28;20020;-48
2022/01/21 12:46:27;;;;;;;7.68;1.65;;;8.50;97.80;;;;;;5061791;28;20035;-48
2022/01/21 12:48:55;;;;;;;5.47;1.60;;;8.50;97.50;;;;;;5063638;28;20039;-48
2022/01/21 12:56:51;;;;;;;1.73;1.50;;;8.40;98.60;;;;;;5056836;28;20369;-47
2022/01/21 12:59:19;;;;;;;9.07;1.60;;;8.40;98.90;;;;;;5064477;28;20517;-48
2022/01/21 13:01:45;;;;;;;7.03;2.08;;;8.40;99.00;;;;;;5063758;28;20073;-48
2022/01/21 13:04:29;;;;;;;4.07;1.40;;;8.40;99.00;;;;;;5061034;28;20530;-48
2022/01/21 13:07:03;;;;;;;4.10;1.42;;;8.40;98.90;;;;;;5064363;28;20033;-48
2022/01/21 13:10:00;;;;;;;5.55;1.63;;;8.40;98.90;;;;;;5064768;28;20081;-48
2022/01/21 13:13:35;;;;;;;10.85;1.85;;;8.40;98.80;;;;;;5062233;28;20037;-48
2022/01/21 13:15:38;;;;;;;7.78;1.58;;;8.30;98.70;;;;;;5064838;28;20458;-47
2022/01/21 13:18:05;;;;;;;4.75;1.75;;;8.40;98.60;;;;;;5062689;28;20025;-48
2022/01/21 13:20:33;;;;;;;6.25;1.83;;;8.40;98.50;;;;;;5060525;28;20454;-48
2022/01/21 13:22:58;;;;;;;8.32;2.38;;;8.40;98.40;;;;;;5059745;28;20036;-48
2022/01/21 13:25:25;;;;;;;6.28;1.70;;;8.40;98.40;;;;;;5059970;28;20036;-48
2022/01/21 13:27:54;;;;;;;5.20;2.67;;;8.40;98.30;;;;;;5060482;28;20476;-48
2022/01/21 13:30:22;;;;;;;6.57;2.00;;;8.40;98.30;;;;;;5064102;28;20042;-48
2022/01/21 13:33:08;;;;;;;2.83;1.88;;;8.40;98.20;;;;;;5059978;28;20444;-48
2022/01/21 13:35:36;;;;;;;9.90;2.30;;;8.40;98.20;;;;;;5062741;28;20409;-48
2022/01/21 13:38:20;;;;;;;3.28;1.58;;;8.40;98.10;;;;;;5061562;28;20024;-48
2022/01/21 13:40:52;;;;;;;5.22;1.73;;;8.40;98.00;;;;;;5059758;28;20024;-47
2022/01/21 13:43:21;;;;;;;6.28;2.08;;;8.40;98.00;;;;;;5062328;28;20108;-48
2022/01/21 13:46:01;;;;;;;8.73;2.08;;;8.40;97.90;;;;;;5061732;28;20021;-48
2022/01/21 13:48:29;;;;;;;5.10;2.15;;;8.40;97.80;;;;;;5061949;28;20108;-48
2022/01/21 13:50:57;;;;;;;6.22;1.10;;;8.40;97.90;;;;;;5061996;28;20115;-48
2022/01/21 13:53:23;;;;;;;5.05;1.90;;;8.40;98.10;;;;;;5061308;28;20052;-48
2022/01/21 13:55:51;;;;;;;6.65;1.88;;;8.40;97.70;;;;;;5059666;28;20370;-48